sensor_id;sensor_type;location;lat;lon;timestamp;temperature;humidity
18103;DHT22;9178;51.120;6.192;2022-09-13T00:02:11;16.20;99.90
18103;DHT22;9178;51.120;6.192;2022-09-13T00:04:38;16.20;99.90
18103;DHT22;9178;51.120;6.192;2022-09-13T00:07:05;16.20;99.90
18103;DHT22;9178;51.120;6.192;2022-09-13T00:09:32;16.20;99.90
18103;DHT22;9178;51.120;6.192;2022-09-13T00:11:59;16.20;99.90
18103;DHT22;9178;51.120;6.192;2022-09-13T00:14:27;16.30;99.90
18103;DHT22;9178;51.120;6.192;2022-09-13T00:16:54;16.30;99.90
18103;DHT22;9178;51.120;6.192;2022-09-13T00:19:20;16.30;99.90
18103;DHT22;9178;51.120;6.192;2022-09-13T00:21:47;16.30;99.90
18103;DHT22;9178;51.120;6.192;2022-09-13T00:24:14;16.30;99.90
18103;DHT22;9178;51.120;6.192;2022-09-13T00:26:41;16.30;99.90
18103;DHT22;9178;51.120;6.192;2022-09-13T00:29:08;16.30;99.90
18103;DHT22;9178;51.120;6.192;2022-09-13T00:31:38;16.40;99.90
18103;DHT22;9178;51.120;6.192;2022-09-13T00:34:05;16.40;99.90
18103;DHT22;9178;51.120;6.192;2022-09-13T00:36:32;16.40;99.90
18103;DHT22;9178;51.120;6.192;2022-09-13T00:38:59;16.40;99.90
18103;DHT22;9178;51.120;6.192;2022-09-13T00:41:26;16.40;99.90
18103;DHT22;9178;51.120;6.192;2022-09-13T00:43:55;16.40;99.90
18103;DHT22;9178;51.120;6.192;2022-09-13T00:46:27;16.40;99.90
18103;DHT22;9178;51.120;6.192;2022-09-13T00:49:00;16.40;99.90
18103;DHT22;9178;51.120;6.192;2022-09-13T00:51:31;16.40;99.90
18103;DHT22;9178;51.120;6.192;2022-09-13T00:53:58;16.40;99.90
18103;DHT22;9178;51.120;6.192;2022-09-13T00:56:30;16.30;99.90
18103;DHT22;9178;51.120;6.192;2022-09-13T00:59:00;16.40;99.90
18103;DHT22;9178;51.120;6.192;2022-09-13T01:01:31;16.40;99.90
18103;DHT22;9178;51.120;6.192;2022-09-13T01:04:00;16.40;99.90
18103;DHT22;9178;51.120;6.192;2022-09-13T01:06:30;16.30;99.90
18103;DHT22;9178;51.120;6.192;2022-09-13T01:08:59;16.40;99.90
18103;DHT22;9178;51.120;6.192;2022-09-13T01:11:32;16.40;99.90
18103;DHT22;9178;51.120;6.192;2022-09-13T01:14:00;16.30;99.90
18103;DHT22;9178;51.120;6.192;2022-09-13T01:16:27;16.30;99.90
18103;DHT22;9178;51.120;6.192;2022-09-13T01:18:54;16.30;99.90
18103;DHT22;9178;51.120;6.192;2022-09-13T01:21:55;16.40;99.90
18103;DHT22;9178;51.120;6.192;2022-09-13T01:25:06;16.30;99.90
18103;DHT22;9178;51.120;6.192;2022-09-13T01:28:04;16.30;99.90
18103;DHT22;9178;51.120;6.192;2022-09-13T01:30:37;16.30;99.90
18103;DHT22;9178;51.120;6.192;2022-09-13T01:33:29;16.30;99.90
18103;DHT22;9178;51.120;6.192;2022-09-13T01:36:15;16.30;99.90
18103;DHT22;9178;51.120;6.192;2022-09-13T01:38:53;16.20;99.90
18103;DHT22;9178;51.120;6.192;2022-09-13T01:41:45;16.20;99.90
18103;DHT22;9178;51.120;6.192;2022-09-13T01:44:20;16.20;99.90
18103;DHT22;9178;51.120;6.192;2022-09-13T01:47:01;16.20;99.90
18103;DHT22;9178;51.120;6.192;2022-09-13T01:49:33;16.20;99.90
18103;DHT22;9178;51.120;6.192;2022-09-13T01:52:07;16.30;99.90
18103;DHT22;9178;51.120;6.192;2022-09-13T01:54:38;16.30;99.90
18103;DHT22;9178;51.120;6.192;2022-09-13T01:57:13;16.20;99.90
18103;DHT22;9178;51.120;6.192;2022-09-13T01:59:47;16.30;99.90
18103;DHT22;9178;51.120;6.192;2022-09-13T02:02:19;16.20;99.90
18103;DHT22;9178;51.120;6.192;2022-09-13T02:04:52;16.30;99.90
18103;DHT22;9178;51.120;6.192;2022-09-13T02:07:23;16.30;99.90
18103;DHT22;9178;51.120;6.192;2022-09-13T02:09:55;16.30;99.90
18103;DHT22;9178;51.120;6.192;2022-09-13T02:12:25;16.30;99.90
18103;DHT22;9178;51.120;6.192;2022-09-13T02:14:56;16.30;99.90
18103;DHT22;9178;51.120;6.192;2022-09-13T02:17:29;16.30;99.90
18103;DHT22;9178;51.120;6.192;2022-09-13T02:20:00;16.30;99.90
18103;DHT22;9178;51.120;6.192;2022-09-13T02:22:32;16.30;99.90
18103;DHT22;9178;51.120;6.192;2022-09-13T02:25:02;16.40;99.90
18103;DHT22;9178;51.120;6.192;2022-09-13T02:27:33;16.40;99.90
18103;DHT22;9178;51.120;6.192;2022-09-13T02:30:04;16.40;99.90
18103;DHT22;9178;51.120;6.192;2022-09-13T02:32:37;16.40;99.90
18103;DHT22;9178;51.120;6.192;2022-09-13T02:35:09;16.50;99.90
18103;DHT22;9178;51.120;6.192;2022-09-13T02:37:39;16.50;99.90
18103;DHT22;9178;51.120;6.192;2022-09-13T02:40:11;16.50;99.90
18103;DHT22;9178;51.120;6.192;2022-09-13T02:42:42;16.50;99.90
18103;DHT22;9178;51.120;6.192;2022-09-13T02:45:11;16.60;99.90
18103;DHT22;9178;51.120;6.192;2022-09-13T02:47:45;16.60;99.90
18103;DHT22;9178;51.120;6.192;2022-09-13T02:50:30;16.60;99.90
18103;DHT22;9178;51.120;6.192;2022-09-13T02:53:03;16.60;99.90
18103;DHT22;9178;51.120;6.192;2022-09-13T02:55:40;16.70;99.90
18103;DHT22;9178;51.120;6.192;2022-09-13T02:58:11;16.70;99.90
18103;DHT22;9178;51.120;6.192;2022-09-13T03:00:40;16.70;99.90
18103;DHT22;9178;51.120;6.192;2022-09-13T03:03:11;16.80;99.90
18103;DHT22;9178;51.120;6.192;2022-09-13T03:05:38;16.80;99.90
18103;DHT22;9178;51.120;6.192;2022-09-13T03:08:06;16.80;99.90
18103;DHT22;9178;51.120;6.192;2022-09-13T03:10:43;16.80;99.90
18103;DHT22;9178;51.120;6.192;2022-09-13T03:13:33;16.80;99.90
18103;DHT22;9178;51.120;6.192;2022-09-13T03:16:12;16.80;99.90
18103;DHT22;9178;51.120;6.192;2022-09-13T03:18:51;16.80;99.90
18103;DHT22;9178;51.120;6.192;2022-09-13T03:21:34;16.80;99.90
18103;DHT22;9178;51.120;6.192;2022-09-13T03:24:08;16.80;99.90
18103;DHT22;9178;51.120;6.192;2022-09-13T03:26:47;16.80;99.90
18103;DHT22;9178;51.120;6.192;2022-09-13T03:29:24;16.80;99.90
18103;DHT22;9178;51.120;6.192;2022-09-13T03:32:04;16.80;99.90
18103;DHT22;9178;51.120;6.192;2022-09-13T03:34:41;16.80;99.90
18103;DHT22;9178;51.120;6.192;2022-09-13T03:37:14;16.80;99.90
18103;DHT22;9178;51.120;6.192;2022-09-13T03:39:47;16.80;99.90
18103;DHT22;9178;51.120;6.192;2022-09-13T03:42:22;16.80;99.90
18103;DHT22;9178;51.120;6.192;2022-09-13T03:44:52;16.80;99.90
18103;DHT22;9178;51.120;6.192;2022-09-13T03:47:23;16.80;99.90
18103;DHT22;9178;51.120;6.192;2022-09-13T03:49:55;16.80;99.90
18103;DHT22;9178;51.120;6.192;2022-09-13T03:52:22;16.80;99.90
18103;DHT22;9178;51.120;6.192;2022-09-13T03:54:50;16.70;99.90
18103;DHT22;9178;51.120;6.192;2022-09-13T03:57:19;16.70;99.90
18103;DHT22;9178;51.120;6.192;2022-09-13T03:59:48;16.70;99.90
18103;DHT22;9178;51.120;6.192;2022-09-13T04:02:16;16.70;99.90
18103;DHT22;9178;51.120;6.192;2022-09-13T04:04:44;16.70;99.90
18103;DHT22;9178;51.120;6.192;2022-09-13T04:07:15;16.70;99.90
18103;DHT22;9178;51.120;6.192;2022-09-13T04:09:42;16.70;99.90
18103;DHT22;9178;51.120;6.192;2022-09-13T04:12:10;16.70;99.90
18103;DHT22;9178;51.120;6.192;2022-09-13T04:14:39;16.70;99.90
18103;DHT22;9178;51.120;6.192;2022-09-13T04:17:06;16.70;99.90
18103;DHT22;9178;51.120;6.192;2022-09-13T04:19:33;16.70;99.90
18103;DHT22;9178;51.120;6.192;2022-09-13T04:22:00;16.60;99.90
18103;DHT22;9178;51.120;6.192;2022-09-13T04:24:29;16.60;99.90
18103;DHT22;9178;51.120;6.192;2022-09-13T04:26:57;16.60;99.90
18103;DHT22;9178;51.120;6.192;2022-09-13T04:29:25;16.70;99.90
18103;DHT22;9178;51.120;6.192;2022-09-13T04:31:53;16.60;99.90
18103;DHT22;9178;51.120;6.192;2022-09-13T04:34:20;16.60;99.90
18103;DHT22;9178;51.120;6.192;2022-09-13T04:36:48;16.60;99.90
18103;DHT22;9178;51.120;6.192;2022-09-13T04:39:15;16.60;99.90
18103;DHT22;9178;51.120;6.192;2022-09-13T04:41:44;16.60;99.90
18103;DHT22;9178;51.120;6.192;2022-09-13T04:44:14;16.60;99.90
18103;DHT22;9178;51.120;6.192;2022-09-13T04:46:41;16.60;99.90
18103;DHT22;9178;51.120;6.192;2022-09-13T04:49:09;16.60;99.90
18103;DHT22;9178;51.120;6.192;2022-09-13T04:51:36;16.60;99.90
18103;DHT22;9178;51.120;6.192;2022-09-13T04:54:05;16.60;99.90
18103;DHT22;9178;51.120;6.192;2022-09-13T04:56:32;16.60;99.90
18103;DHT22;9178;51.120;6.192;2022-09-13T04:59:00;16.60;99.90
18103;DHT22;9178;51.120;6.192;2022-09-13T05:01:27;16.60;99.90
18103;DHT22;9178;51.120;6.192;2022-09-13T05:03:54;16.60;99.90
18103;DHT22;9178;51.120;6.192;2022-09-13T05:06:21;16.60;99.90
18103;DHT22;9178;51.120;6.192;2022-09-13T05:08:50;16.60;99.90
18103;DHT22;9178;51.120;6.192;2022-09-13T05:11:19;16.60;99.90
18103;DHT22;9178;51.120;6.192;2022-09-13T05:13:48;16.60;99.90
18103;DHT22;9178;51.120;6.192;2022-09-13T05:16:20;16.60;99.90
18103;DHT22;9178;51.120;6.192;2022-09-13T05:18:50;16.60;99.90
18103;DHT22;9178;51.120;6.192;2022-09-13T05:21:18;16.50;99.90
18103;DHT22;9178;51.120;6.192;2022-09-13T05:23:47;16.50;99.90
18103;DHT22;9178;51.120;6.192;2022-09-13T05:26:14;16.50;99.90
18103;DHT22;9178;51.120;6.192;2022-09-13T05:28:41;16.50;99.90
18103;DHT22;9178;51.120;6.192;2022-09-13T05:31:12;16.60;99.90
18103;DHT22;9178;51.120;6.192;2022-09-13T05:33:42;16.60;99.90
18103;DHT22;9178;51.120;6.192;2022-09-13T05:36:09;16.60;99.90
18103;DHT22;9178;51.120;6.192;2022-09-13T05:38:36;16.70;99.90
18103;DHT22;9178;51.120;6.192;2022-09-13T05:41:04;16.70;99.90
18103;DHT22;9178;51.120;6.192;2022-09-13T05:43:35;16.60;99.90
18103;DHT22;9178;51.120;6.192;2022-09-13T05:46:04;16.70;99.90
18103;DHT22;9178;51.120;6.192;2022-09-13T05:48:31;16.60;99.90
18103;DHT22;9178;51.120;6.192;2022-09-13T05:51:05;16.70;99.90
18103;DHT22;9178;51.120;6.192;2022-09-13T05:53:32;16.70;99.90
18103;DHT22;9178;51.120;6.192;2022-09-13T05:56:00;16.60;99.90
18103;DHT22;9178;51.120;6.192;2022-09-13T05:58:27;16.70;99.90
18103;DHT22;9178;51.120;6.192;2022-09-13T06:00:54;16.70;99.90
18103;DHT22;9178;51.120;6.192;2022-09-13T06:03:22;16.70;99.90
18103;DHT22;9178;51.120;6.192;2022-09-13T06:05:54;16.70;99.90
18103;DHT22;9178;51.120;6.192;2022-09-13T06:08:22;16.70;99.90
18103;DHT22;9178;51.120;6.192;2022-09-13T06:10:53;16.70;99.90
18103;DHT22;9178;51.120;6.192;2022-09-13T06:13:20;16.80;99.90
18103;DHT22;9178;51.120;6.192;2022-09-13T06:15:47;16.80;99.90
18103;DHT22;9178;51.120;6.192;2022-09-13T06:18:14;16.80;99.90
18103;DHT22;9178;51.120;6.192;2022-09-13T06:20:42;16.80;99.90
18103;DHT22;9178;51.120;6.192;2022-09-13T06:23:09;16.90;99.90
18103;DHT22;9178;51.120;6.192;2022-09-13T06:25:37;16.90;99.90
18103;DHT22;9178;51.120;6.192;2022-09-13T06:28:04;16.90;99.90
18103;DHT22;9178;51.120;6.192;2022-09-13T06:30:31;16.90;99.90
18103;DHT22;9178;51.120;6.192;2022-09-13T06:32:58;17.00;99.90
18103;DHT22;9178;51.120;6.192;2022-09-13T06:35:25;17.00;99.90
18103;DHT22;9178;51.120;6.192;2022-09-13T06:37:54;17.00;99.90
18103;DHT22;9178;51.120;6.192;2022-09-13T06:40:21;17.10;99.90
18103;DHT22;9178;51.120;6.192;2022-09-13T06:42:51;17.10;99.90
18103;DHT22;9178;51.120;6.192;2022-09-13T06:45:18;17.20;99.90
18103;DHT22;9178;51.120;6.192;2022-09-13T06:47:46;17.20;99.90
18103;DHT22;9178;51.120;6.192;2022-09-13T06:50:12;17.20;99.90
18103;DHT22;9178;51.120;6.192;2022-09-13T06:52:39;17.30;99.90
18103;DHT22;9178;51.120;6.192;2022-09-13T06:55:07;17.30;99.90
18103;DHT22;9178;51.120;6.192;2022-09-13T06:57:34;17.40;99.90
18103;DHT22;9178;51.120;6.192;2022-09-13T07:00:03;17.40;99.90
18103;DHT22;9178;51.120;6.192;2022-09-13T07:02:30;17.50;99.90
18103;DHT22;9178;51.120;6.192;2022-09-13T07:04:57;17.60;99.90
18103;DHT22;9178;51.120;6.192;2022-09-13T07:07:24;17.60;99.90
18103;DHT22;9178;51.120;6.192;2022-09-13T07:09:50;17.70;99.90
18103;DHT22;9178;51.120;6.192;2022-09-13T07:12:17;17.70;99.90
18103;DHT22;9178;51.120;6.192;2022-09-13T07:14:44;17.80;99.90
18103;DHT22;9178;51.120;6.192;2022-09-13T07:17:12;17.80;99.90
18103;DHT22;9178;51.120;6.192;2022-09-13T07:19:39;18.00;99.90
18103;DHT22;9178;51.120;6.192;2022-09-13T07:22:06;18.00;99.90
18103;DHT22;9178;51.120;6.192;2022-09-13T07:24:33;18.10;99.90
18103;DHT22;9178;51.120;6.192;2022-09-13T07:26:59;18.10;99.90
18103;DHT22;9178;51.120;6.192;2022-09-13T07:29:26;18.10;99.90
18103;DHT22;9178;51.120;6.192;2022-09-13T07:31:54;18.20;99.90
18103;DHT22;9178;51.120;6.192;2022-09-13T07:34:25;18.20;99.90
18103;DHT22;9178;51.120;6.192;2022-09-13T07:36:52;18.30;99.90
18103;DHT22;9178;51.120;6.192;2022-09-13T07:39:19;18.40;99.90
18103;DHT22;9178;51.120;6.192;2022-09-13T07:41:46;18.40;99.90
18103;DHT22;9178;51.120;6.192;2022-09-13T07:44:13;18.50;99.90
18103;DHT22;9178;51.120;6.192;2022-09-13T07:46:40;18.50;99.90
18103;DHT22;9178;51.120;6.192;2022-09-13T07:49:09;18.60;99.90
18103;DHT22;9178;51.120;6.192;2022-09-13T07:51:38;18.70;99.90
18103;DHT22;9178;51.120;6.192;2022-09-13T07:54:09;18.70;99.90
18103;DHT22;9178;51.120;6.192;2022-09-13T07:56:38;18.80;99.90
18103;DHT22;9178;51.120;6.192;2022-09-13T07:59:09;18.90;99.90
18103;DHT22;9178;51.120;6.192;2022-09-13T08:01:37;19.00;99.90
18103;DHT22;9178;51.120;6.192;2022-09-13T08:04:06;19.10;99.90
18103;DHT22;9178;51.120;6.192;2022-09-13T08:06:35;19.20;99.90
18103;DHT22;9178;51.120;6.192;2022-09-13T08:09:13;19.30;99.90
18103;DHT22;9178;51.120;6.192;2022-09-13T08:11:42;19.40;99.90
18103;DHT22;9178;51.120;6.192;2022-09-13T08:14:10;19.40;99.90
18103;DHT22;9178;51.120;6.192;2022-09-13T08:16:38;19.50;99.90
18103;DHT22;9178;51.120;6.192;2022-09-13T08:19:09;19.50;99.90
18103;DHT22;9178;51.120;6.192;2022-09-13T08:21:38;19.60;99.90
18103;DHT22;9178;51.120;6.192;2022-09-13T08:24:14;19.70;99.90
18103;DHT22;9178;51.120;6.192;2022-09-13T08:26:41;19.80;99.90
18103;DHT22;9178;51.120;6.192;2022-09-13T08:29:10;19.90;99.90
18103;DHT22;9178;51.120;6.192;2022-09-13T08:31:37;20.00;99.90
18103;DHT22;9178;51.120;6.192;2022-09-13T08:34:06;20.10;99.90
18103;DHT22;9178;51.120;6.192;2022-09-13T08:36:35;20.10;99.90
18103;DHT22;9178;51.120;6.192;2022-09-13T08:39:02;20.20;99.90
18103;DHT22;9178;51.120;6.192;2022-09-13T08:41:51;20.30;99.90
18103;DHT22;9178;51.120;6.192;2022-09-13T08:44:26;20.30;99.90
18103;DHT22;9178;51.120;6.192;2022-09-13T08:46:57;20.40;99.90
18103;DHT22;9178;51.120;6.192;2022-09-13T08:49:27;20.50;99.90
18103;DHT22;9178;51.120;6.192;2022-09-13T08:51:58;20.60;99.90
18103;DHT22;9178;51.120;6.192;2022-09-13T08:54:26;20.60;99.90
18103;DHT22;9178;51.120;6.192;2022-09-13T08:57:00;20.70;99.90
18103;DHT22;9178;51.120;6.192;2022-09-13T08:59:38;20.80;99.90
18103;DHT22;9178;51.120;6.192;2022-09-13T09:02:16;20.80;99.90
18103;DHT22;9178;51.120;6.192;2022-09-13T09:04:51;20.90;99.90
18103;DHT22;9178;51.120;6.192;2022-09-13T09:07:23;20.90;99.90
18103;DHT22;9178;51.120;6.192;2022-09-13T09:09:54;20.90;99.90
18103;DHT22;9178;51.120;6.192;2022-09-13T09:12:32;21.00;99.90
18103;DHT22;9178;51.120;6.192;2022-09-13T09:15:07;21.00;99.90
18103;DHT22;9178;51.120;6.192;2022-09-13T09:17:45;21.10;99.90
18103;DHT22;9178;51.120;6.192;2022-09-13T09:20:22;21.20;99.90
18103;DHT22;9178;51.120;6.192;2022-09-13T09:22:50;21.30;99.90
18103;DHT22;9178;51.120;6.192;2022-09-13T09:25:20;21.40;99.90
18103;DHT22;9178;51.120;6.192;2022-09-13T09:27:49;21.50;99.90
18103;DHT22;9178;51.120;6.192;2022-09-13T09:30:17;21.60;99.90
18103;DHT22;9178;51.120;6.192;2022-09-13T09:32:58;21.70;99.90
18103;DHT22;9178;51.120;6.192;2022-09-13T09:35:37;21.70;99.90
18103;DHT22;9178;51.120;6.192;2022-09-13T09:38:26;21.80;99.90
18103;DHT22;9178;51.120;6.192;2022-09-13T09:40:59;21.90;99.90
18103;DHT22;9178;51.120;6.192;2022-09-13T09:43:32;22.00;99.90
18103;DHT22;9178;51.120;6.192;2022-09-13T09:46:02;22.10;99.90
18103;DHT22;9178;51.120;6.192;2022-09-13T09:48:34;22.10;99.90
18103;DHT22;9178;51.120;6.192;2022-09-13T09:51:04;22.20;99.90
18103;DHT22;9178;51.120;6.192;2022-09-13T09:53:37;22.20;99.90
18103;DHT22;9178;51.120;6.192;2022-09-13T09:56:20;22.20;99.90
18103;DHT22;9178;51.120;6.192;2022-09-13T09:58:51;22.30;99.90
18103;DHT22;9178;51.120;6.192;2022-09-13T10:01:22;22.30;99.90
18103;DHT22;9178;51.120;6.192;2022-09-13T10:03:53;22.30;99.90
18103;DHT22;9178;51.120;6.192;2022-09-13T10:06:23;22.40;99.90
18103;DHT22;9178;51.120;6.192;2022-09-13T10:08:57;22.40;99.90
18103;DHT22;9178;51.120;6.192;2022-09-13T10:11:38;22.50;99.90
18103;DHT22;9178;51.120;6.192;2022-09-13T10:14:29;22.50;99.90
18103;DHT22;9178;51.120;6.192;2022-09-13T10:17:14;22.50;99.90
18103;DHT22;9178;51.120;6.192;2022-09-13T10:19:51;22.60;99.90
18103;DHT22;9178;51.120;6.192;2022-09-13T10:22:19;22.70;99.90
18103;DHT22;9178;51.120;6.192;2022-09-13T10:24:47;22.70;99.90
18103;DHT22;9178;51.120;6.192;2022-09-13T10:27:19;22.70;99.90
18103;DHT22;9178;51.120;6.192;2022-09-13T10:29:51;22.80;99.90
18103;DHT22;9178;51.120;6.192;2022-09-13T10:32:21;22.80;99.90
18103;DHT22;9178;51.120;6.192;2022-09-13T10:34:48;22.80;99.90
18103;DHT22;9178;51.120;6.192;2022-09-13T10:37:18;22.90;99.90
18103;DHT22;9178;51.120;6.192;2022-09-13T10:39:54;23.00;99.90
18103;DHT22;9178;51.120;6.192;2022-09-13T10:42:24;23.10;99.90
18103;DHT22;9178;51.120;6.192;2022-09-13T10:44:55;23.20;99.90
18103;DHT22;9178;51.120;6.192;2022-09-13T10:47:25;23.40;99.90
18103;DHT22;9178;51.120;6.192;2022-09-13T10:49:54;23.50;99.90
18103;DHT22;9178;51.120;6.192;2022-09-13T10:52:30;23.50;99.90
18103;DHT22;9178;51.120;6.192;2022-09-13T10:55:23;23.60;99.90
18103;DHT22;9178;51.120;6.192;2022-09-13T10:57:52;23.70;99.90
18103;DHT22;9178;51.120;6.192;2022-09-13T11:00:23;23.90;99.90
18103;DHT22;9178;51.120;6.192;2022-09-13T11:03:03;24.10;99.90
18103;DHT22;9178;51.120;6.192;2022-09-13T11:05:36;24.10;99.90
18103;DHT22;9178;51.120;6.192;2022-09-13T11:08:27;24.20;99.90
18103;DHT22;9178;51.120;6.192;2022-09-13T11:11:09;24.20;99.90
18103;DHT22;9178;51.120;6.192;2022-09-13T11:13:51;24.30;99.90
18103;DHT22;9178;51.120;6.192;2022-09-13T11:16:31;24.30;99.90
18103;DHT22;9178;51.120;6.192;2022-09-13T11:22:03;24.40;99.90
18103;DHT22;9178;51.120;6.192;2022-09-13T11:27:42;24.50;99.90
18103;DHT22;9178;51.120;6.192;2022-09-13T11:30:14;24.50;99.90
18103;DHT22;9178;51.120;6.192;2022-09-13T11:32:51;24.50;99.90
18103;DHT22;9178;51.120;6.192;2022-09-13T11:35:33;24.50;99.90
18103;DHT22;9178;51.120;6.192;2022-09-13T11:38:11;24.40;99.90
18103;DHT22;9178;51.120;6.192;2022-09-13T11:40:49;24.30;99.90
18103;DHT22;9178;51.120;6.192;2022-09-13T11:43:40;24.30;99.90
18103;DHT22;9178;51.120;6.192;2022-09-13T11:46:21;24.40;99.90
18103;DHT22;9178;51.120;6.192;2022-09-13T11:49:17;24.60;99.90
18103;DHT22;9178;51.120;6.192;2022-09-13T11:51:54;24.70;99.90
18103;DHT22;9178;51.120;6.192;2022-09-13T11:54:38;24.60;99.90
18103;DHT22;9178;51.120;6.192;2022-09-13T11:57:10;24.60;99.90
18103;DHT22;9178;51.120;6.192;2022-09-13T11:59:57;24.70;99.90
18103;DHT22;9178;51.120;6.192;2022-09-13T12:02:28;24.80;99.90
18103;DHT22;9178;51.120;6.192;2022-09-13T12:05:00;24.90;99.90
18103;DHT22;9178;51.120;6.192;2022-09-13T12:07:34;24.90;99.90
18103;DHT22;9178;51.120;6.192;2022-09-13T12:10:06;24.90;99.90
18103;DHT22;9178;51.120;6.192;2022-09-13T12:12:39;24.90;99.90
18103;DHT22;9178;51.120;6.192;2022-09-13T12:15:14;24.90;99.90
18103;DHT22;9178;51.120;6.192;2022-09-13T12:17:44;24.90;99.90
18103;DHT22;9178;51.120;6.192;2022-09-13T12:20:27;24.90;99.90
18103;DHT22;9178;51.120;6.192;2022-09-13T12:22:57;24.90;99.90
18103;DHT22;9178;51.120;6.192;2022-09-13T12:25:33;24.90;99.90
18103;DHT22;9178;51.120;6.192;2022-09-13T12:28:11;24.80;99.90
18103;DHT22;9178;51.120;6.192;2022-09-13T12:30:44;24.80;99.90
18103;DHT22;9178;51.120;6.192;2022-09-13T12:33:13;24.80;99.90
18103;DHT22;9178;51.120;6.192;2022-09-13T12:35:49;24.80;99.90
18103;DHT22;9178;51.120;6.192;2022-09-13T12:38:30;24.80;99.90
18103;DHT22;9178;51.120;6.192;2022-09-13T12:41:18;24.70;99.90
18103;DHT22;9178;51.120;6.192;2022-09-13T12:44:22;24.80;99.90
18103;DHT22;9178;51.120;6.192;2022-09-13T12:47:11;24.90;99.90
18103;DHT22;9178;51.120;6.192;2022-09-13T12:49:50;24.90;99.90
18103;DHT22;9178;51.120;6.192;2022-09-13T12:52:28;24.90;99.90
18103;DHT22;9178;51.120;6.192;2022-09-13T12:55:22;24.80;99.90
18103;DHT22;9178;51.120;6.192;2022-09-13T12:57:59;24.80;99.90
18103;DHT22;9178;51.120;6.192;2022-09-13T13:00:32;24.70;99.90
18103;DHT22;9178;51.120;6.192;2022-09-13T13:03:11;24.70;99.90
18103;DHT22;9178;51.120;6.192;2022-09-13T13:05:42;24.60;99.90
18103;DHT22;9178;51.120;6.192;2022-09-13T13:08:24;24.60;99.90
18103;DHT22;9178;51.120;6.192;2022-09-13T13:11:00;24.70;99.90
18103;DHT22;9178;51.120;6.192;2022-09-13T13:13:33;24.70;99.90
18103;DHT22;9178;51.120;6.192;2022-09-13T13:16:23;24.70;99.90
18103;DHT22;9178;51.120;6.192;2022-09-13T13:18:52;24.70;99.90
18103;DHT22;9178;51.120;6.192;2022-09-13T13:21:32;24.70;99.90
18103;DHT22;9178;51.120;6.192;2022-09-13T13:24:37;24.70;99.90
18103;DHT22;9178;51.120;6.192;2022-09-13T13:27:31;24.80;99.90
18103;DHT22;9178;51.120;6.192;2022-09-13T13:33:10;24.80;99.90
18103;DHT22;9178;51.120;6.192;2022-09-13T13:35:39;24.90;99.90
18103;DHT22;9178;51.120;6.192;2022-09-13T13:38:41;25.00;99.90
18103;DHT22;9178;51.120;6.192;2022-09-13T13:41:42;25.00;99.90
18103;DHT22;9178;51.120;6.192;2022-09-13T13:50:27;25.40;99.90
18103;DHT22;9178;51.120;6.192;2022-09-13T13:52:57;25.60;99.90
18103;DHT22;9178;51.120;6.192;2022-09-13T13:55:44;25.70;99.90
18103;DHT22;9178;51.120;6.192;2022-09-13T13:58:30;25.90;99.90
18103;DHT22;9178;51.120;6.192;2022-09-13T14:01:02;26.00;99.90
18103;DHT22;9178;51.120;6.192;2022-09-13T14:03:46;26.10;99.90
18103;DHT22;9178;51.120;6.192;2022-09-13T14:06:20;26.30;99.90
18103;DHT22;9178;51.120;6.192;2022-09-13T14:09:07;26.40;99.90
18103;DHT22;9178;51.120;6.192;2022-09-13T14:11:44;26.50;99.90
18103;DHT22;9178;51.120;6.192;2022-09-13T14:14:26;26.50;99.90
18103;DHT22;9178;51.120;6.192;2022-09-13T14:17:16;26.50;99.90
18103;DHT22;9178;51.120;6.192;2022-09-13T14:19:50;26.50;99.90
18103;DHT22;9178;51.120;6.192;2022-09-13T14:22:20;26.60;99.90
18103;DHT22;9178;51.120;6.192;2022-09-13T14:24:49;26.60;99.90
18103;DHT22;9178;51.120;6.192;2022-09-13T14:27:19;26.60;99.90
18103;DHT22;9178;51.120;6.192;2022-09-13T14:29:49;26.60;99.90
18103;DHT22;9178;51.120;6.192;2022-09-13T14:32:21;26.60;99.90
18103;DHT22;9178;51.120;6.192;2022-09-13T14:34:54;26.60;99.90
18103;DHT22;9178;51.120;6.192;2022-09-13T14:37:26;26.60;99.90
18103;DHT22;9178;51.120;6.192;2022-09-13T14:40:00;26.60;99.90
18103;DHT22;9178;51.120;6.192;2022-09-13T14:42:37;26.60;99.90
18103;DHT22;9178;51.120;6.192;2022-09-13T14:45:05;26.50;99.90
18103;DHT22;9178;51.120;6.192;2022-09-13T14:47:34;26.50;99.90
18103;DHT22;9178;51.120;6.192;2022-09-13T14:50:07;26.40;99.90
18103;DHT22;9178;51.120;6.192;2022-09-13T14:52:45;26.30;99.90
18103;DHT22;9178;51.120;6.192;2022-09-13T14:55:17;26.30;99.90
18103;DHT22;9178;51.120;6.192;2022-09-13T14:57:48;26.20;99.90
18103;DHT22;9178;51.120;6.192;2022-09-13T15:00:18;26.00;99.90
18103;DHT22;9178;51.120;6.192;2022-09-13T15:02:48;26.00;99.90
18103;DHT22;9178;51.120;6.192;2022-09-13T15:05:17;25.80;99.90
18103;DHT22;9178;51.120;6.192;2022-09-13T15:07:45;25.60;99.90
18103;DHT22;9178;51.120;6.192;2022-09-13T15:10:23;25.50;99.90
18103;DHT22;9178;51.120;6.192;2022-09-13T15:12:53;25.40;99.90
18103;DHT22;9178;51.120;6.192;2022-09-13T15:15:25;25.30;99.90
18103;DHT22;9178;51.120;6.192;2022-09-13T15:17:53;25.30;99.90
18103;DHT22;9178;51.120;6.192;2022-09-13T15:20:21;25.20;99.90
18103;DHT22;9178;51.120;6.192;2022-09-13T15:22:48;25.10;99.90
18103;DHT22;9178;51.120;6.192;2022-09-13T15:25:22;25.10;99.90
18103;DHT22;9178;51.120;6.192;2022-09-13T15:27:49;25.00;99.90
18103;DHT22;9178;51.120;6.192;2022-09-13T15:30:22;24.90;99.90
18103;DHT22;9178;51.120;6.192;2022-09-13T15:33:13;24.70;99.90
18103;DHT22;9178;51.120;6.192;2022-09-13T15:35:42;24.60;99.90
18103;DHT22;9178;51.120;6.192;2022-09-13T15:38:25;24.50;99.90
18103;DHT22;9178;51.120;6.192;2022-09-13T15:41:02;24.50;99.90
18103;DHT22;9178;51.120;6.192;2022-09-13T15:43:37;24.40;99.90
18103;DHT22;9178;51.120;6.192;2022-09-13T15:46:04;24.30;99.90
18103;DHT22;9178;51.120;6.192;2022-09-13T15:48:33;24.20;99.90
18103;DHT22;9178;51.120;6.192;2022-09-13T15:51:05;24.20;99.90
18103;DHT22;9178;51.120;6.192;2022-09-13T15:53:33;24.10;99.90
18103;DHT22;9178;51.120;6.192;2022-09-13T15:56:04;23.90;99.90
18103;DHT22;9178;51.120;6.192;2022-09-13T15:58:32;23.80;99.90
18103;DHT22;9178;51.120;6.192;2022-09-13T16:00:59;23.80;99.90
18103;DHT22;9178;51.120;6.192;2022-09-13T16:03:26;23.60;99.90
18103;DHT22;9178;51.120;6.192;2022-09-13T16:05:53;23.60;99.90
18103;DHT22;9178;51.120;6.192;2022-09-13T16:08:22;23.50;99.90
18103;DHT22;9178;51.120;6.192;2022-09-13T16:10:49;23.50;99.90
18103;DHT22;9178;51.120;6.192;2022-09-13T16:13:17;23.50;99.90
18103;DHT22;9178;51.120;6.192;2022-09-13T16:15:44;23.40;99.90
18103;DHT22;9178;51.120;6.192;2022-09-13T16:18:11;23.40;99.90
18103;DHT22;9178;51.120;6.192;2022-09-13T16:20:39;23.30;99.90
18103;DHT22;9178;51.120;6.192;2022-09-13T16:23:05;23.20;99.90
18103;DHT22;9178;51.120;6.192;2022-09-13T16:25:32;23.10;99.90
18103;DHT22;9178;51.120;6.192;2022-09-13T16:28:00;23.10;99.90
18103;DHT22;9178;51.120;6.192;2022-09-13T16:30:28;23.00;99.90
18103;DHT22;9178;51.120;6.192;2022-09-13T16:32:56;22.90;99.90
18103;DHT22;9178;51.120;6.192;2022-09-13T16:35:25;22.80;99.90